Time;durP1;ratioP1;P1;durP2;ratioP2;P2;SDS_P1;SDS_P2;PMS_P1;PMS_P2;Temp;Humidity;BMP_temperature;BMP_pressure;BME280_temperature;BME280_humidity;BME280_pressure;Samples;Min_cycle;Max_cycle;Signal;HPM_P1;HPM_P2
2022/11/15 00:00:46;;;;;;;5.05;2.22;;;10.20;93.10;;;;;;5020589;28;20052;-68
2022/11/15 00:03:23;;;;;;;5.63;1.90;;;10.20;93.30;;;;;;5030470;28;20059;-68
2022/11/15 00:05:49;;;;;;;5.43;1.88;;;10.10;93.50;;;;;;5025662;28;20112;-69
2022/11/15 00:08:15;;;;;;;5.07;2.25;;;10.10;94.20;;;;;;5017627;28;20029;-69
2022/11/15 00:10:41;;;;;;;4.35;1.88;;;9.90;94.40;;;;;;5012497;28;20033;-68
2022/11/15 00:13:09;;;;;;;5.88;2.20;;;9.90;95.00;;;;;;5018229;28;20033;-69
2022/11/15 00:15:41;;;;;;;4.55;2.17;;;9.80;95.20;;;;;;5018356;28;20095;-68
2022/11/15 00:18:12;;;;;;;6.15;2.00;;;9.70;95.70;;;;;;5031892;28;20062;-68
2022/11/15 00:20:38;;;;;;;4.20;2.10;;;9.60;96.20;;;;;;5023098;28;20021;-68
2022/11/15 00:23:04;;;;;;;5.85;2.00;;;9.60;96.30;;;;;;5022506;28;20098;-68
2022/11/15 00:25:30;;;;;;;3.47;2.00;;;9.50;96.60;;;;;;5019461;28;20025;-69
2022/11/15 00:27:57;;;;;;;4.65;2.00;;;9.40;96.90;;;;;;5020525;28;20120;-69
2022/11/15 00:30:23;;;;;;;5.05;2.20;;;9.40;97.40;;;;;;5020962;28;20051;-68
2022/11/15 00:32:49;;;;;;;4.55;2.13;;;9.60;96.90;;;;;;5024320;28;20414;-69
2022/11/15 00:35:15;;;;;;;7.82;2.40;;;9.70;96.80;;;;;;5017700;28;20423;-68
2022/11/15 00:37:40;;;;;;;7.45;2.20;;;9.60;97.10;;;;;;5014245;28;20110;-68
2022/11/15 00:40:07;;;;;;;6.28;2.10;;;9.40;97.40;;;;;;5021356;28;20385;-69
2022/11/15 00:42:33;;;;;;;5.90;2.30;;;9.30;97.50;;;;;;5018122;28;20068;-69
2022/11/15 00:44:58;;;;;;;7.20;2.67;;;9.20;98.00;;;;;;5015545;28;20033;-69
2022/11/15 00:47:24;;;;;;;4.28;2.17;;;9.00;98.00;;;;;;5020973;28;20308;-69
2022/11/15 00:49:50;;;;;;;6.05;2.42;;;8.90;98.00;;;;;;5036468;28;20334;-69
2022/11/15 00:52:15;;;;;;;7.10;2.60;;;8.80;98.00;;;;;;5016784;28;20033;-68
2022/11/15 00:54:41;;;;;;;5.88;2.15;;;8.90;98.00;;;;;;5023260;28;20026;-69
2022/11/15 00:57:07;;;;;;;5.07;2.17;;;8.90;98.00;;;;;;5020162;28;20314;-68
2022/11/15 00:59:32;;;;;;;6.30;2.45;;;8.90;98.00;;;;;;5021621;28;20045;-68
2022/11/15 01:01:58;;;;;;;5.32;2.40;;;8.80;98.00;;;;;;5023468;28;20106;-68
2022/11/15 01:04:24;;;;;;;5.90;2.70;;;8.70;98.00;;;;;;5021501;28;20438;-68
2022/11/15 01:06:49;;;;;;;4.43;2.20;;;8.80;98.00;;;;;;5019109;28;20302;-68
2022/11/15 01:09:15;;;;;;;4.63;2.15;;;8.80;98.00;;;;;;5022611;28;20422;-68
2022/11/15 01:11:41;;;;;;;7.03;2.17;;;9.00;98.00;;;;;;5019456;28;20029;-68
2022/11/15 01:14:07;;;;;;;4.55;2.03;;;9.20;98.00;;;;;;5022588;28;20041;-69
2022/11/15 01:16:33;;;;;;;4.57;2.25;;;9.30;98.00;;;;;;5020157;28;20426;-68
2022/11/15 01:18:59;;;;;;;4.97;2.03;;;9.30;98.00;;;;;;5020082;28;21667;-69
2022/11/15 01:21:25;;;;;;;6.03;2.20;;;9.30;98.00;;;;;;5029313;28;20044;-69
2022/11/15 01:23:59;;;;;;;4.57;2.38;;;9.30;98.00;;;;;;5032639;28;20025;-68
2022/11/15 01:26:25;;;;;;;4.13;2.00;;;9.30;97.70;;;;;;5020140;28;20295;-68
2022/11/15 01:28:51;;;;;;;5.20;2.20;;;9.40;97.60;;;;;;5024921;28;20056;-69
2022/11/15 01:31:21;;;;;;;6.20;2.17;;;9.40;97.20;;;;;;5021688;28;20095;-68
2022/11/15 01:33:47;;;;;;;6.13;2.17;;;9.40;97.10;;;;;;5017596;28;20076;-68
2022/11/15 01:36:21;;;;;;;5.97;2.25;;;9.40;97.00;;;;;;5019954;28;20032;-68
2022/11/15 01:38:52;;;;;;;4.53;2.00;;;9.40;96.90;;;;;;5034519;28;20053;-68
2022/11/15 01:41:22;;;;;;;4.72;2.13;;;9.40;96.80;;;;;;5019699;28;20025;-68
2022/11/15 01:43:57;;;;;;;5.65;2.10;;;9.30;96.70;;;;;;5026176;28;20053;-68
2022/11/15 01:46:22;;;;;;;5.93;2.00;;;9.30;96.50;;;;;;5022435;28;20026;-69
2022/11/15 01:48:51;;;;;;;5.03;2.10;;;9.30;96.40;;;;;;5022131;28;20025;-68
2022/11/15 01:51:19;;;;;;;6.00;2.00;;;9.20;96.60;;;;;;5023836;28;20026;-68
2022/11/15 01:53:49;;;;;;;8.68;2.00;;;9.10;96.60;;;;;;5020893;28;20442;-68
2022/11/15 01:56:19;;;;;;;6.25;2.00;;;9.00;96.50;;;;;;5023871;28;20034;-68
2022/11/15 01:58:46;;;;;;;5.45;1.98;;;9.00;96.40;;;;;;5020814;28;20013;-68
2022/11/15 02:01:13;;;;;;;5.07;2.22;;;8.90;96.40;;;;;;5010829;28;20353;-68
2022/11/15 02:03:58;;;;;;;5.32;2.20;;;9.00;95.80;;;;;;5025533;28;20025;-68
2022/11/15 02:06:23;;;;;;;4.13;1.90;;;9.10;95.20;;;;;;5024439;28;20030;-69
2022/11/15 02:08:50;;;;;;;6.55;2.67;;;9.10;95.10;;;;;;5021012;28;20052;-70
2022/11/15 02:11:16;;;;;;;5.70;2.33;;;9.20;94.10;;;;;;5017445;28;20095;-69
2022/11/15 02:13:45;;;;;;;4.80;2.08;;;9.10;94.60;;;;;;5030801;28;20034;-69
2022/11/15 02:16:25;;;;;;;5.75;2.22;;;9.10;94.60;;;;;;5020986;28;20033;-69
2022/11/15 02:19:21;;;;;;;4.32;1.77;;;9.20;93.90;;;;;;5018535;28;20029;-69
2022/11/15 02:22:03;;;;;;;4.88;2.15;;;9.20;94.30;;;;;;5018579;28;20038;-69
2022/11/15 02:24:59;;;;;;;6.30;1.85;;;9.20;93.60;;;;;;5018509;28;20435;-67
2022/11/15 02:27:37;;;;;;;4.20;1.90;;;9.00;94.50;;;;;;5019108;28;20045;-69
2022/11/15 02:30:24;;;;;;;6.68;2.15;;;9.00;94.60;;;;;;5014204;28;20083;-69
2022/11/15 02:33:05;;;;;;;4.07;2.03;;;8.80;95.00;;;;;;5026313;28;20050;-69
2022/11/15 02:35:47;;;;;;;4.80;1.85;;;9.00;94.40;;;;;;5023300;28;20454;-69
2022/11/15 02:38:36;;;;;;;6.68;2.00;;;9.10;94.30;;;;;;5018322;28;20542;-68
2022/11/15 02:41:16;;;;;;;6.05;1.92;;;9.20;93.90;;;;;;5022082;28;20025;-68
2022/11/15 02:43:56;;;;;;;3.78;1.60;;;9.40;92.80;;;;;;5020499;28;20026;-68
2022/11/15 02:49:28;;;;;;;5.35;1.70;;;9.40;92.50;;;;;;5016323;28;20331;-69
2022/11/15 02:51:55;;;;;;;4.78;1.88;;;9.40;92.60;;;;;;5016079;28;20071;-69
2022/11/15 02:54:24;;;;;;;6.78;1.98;;;9.40;92.20;;;;;;5020190;28;20123;-68
2022/11/15 02:56:53;;;;;;;4.60;1.70;;;9.50;92.20;;;;;;5021426;28;20083;-69
2022/11/15 02:59:39;;;;;;;5.20;1.77;;;9.70;91.40;;;;;;5021975;28;20026;-68
2022/11/15 03:02:32;;;;;;;4.85;1.95;;;9.70;91.70;;;;;;5020074;28;20171;-67
2022/11/15 03:05:10;;;;;;;3.83;1.77;;;9.70;91.90;;;;;;5035783;28;20029;-69
2022/11/15 03:07:50;;;;;;;4.25;1.88;;;9.60;91.90;;;;;;5014455;28;20030;-68
2022/11/15 03:10:47;;;;;;;5.15;1.98;;;9.70;91.80;;;;;;5014619;28;20299;-69
2022/11/15 03:13:19;;;;;;;5.72;1.67;;;9.70;91.50;;;;;;5020030;28;20029;-69
2022/11/15 03:16:03;;;;;;;4.13;1.80;;;9.80;91.60;;;;;;5020044;28;20025;-68
2022/11/15 03:18:43;;;;;;;5.72;1.95;;;9.80;91.50;;;;;;5018858;28;20079;-68
2022/11/15 03:21:11;;;;;;;4.45;1.80;;;9.80;91.50;;;;;;4999467;28;20113;-69
2022/11/15 03:23:38;;;;;;;3.92;1.98;;;9.80;91.70;;;;;;5017481;28;20030;-69
2022/11/15 03:26:11;;;;;;;5.90;1.58;;;9.70;91.90;;;;;;5034211;28;20026;-69
2022/11/15 03:28:46;;;;;;;4.07;2.10;;;9.70;91.70;;;;;;5020254;28;20041;-68
2022/11/15 03:34:04;;;;;;;3.53;1.60;;;9.60;92.40;;;;;;5025613;28;20080;-69
2022/11/15 03:36:32;;;;;;;4.75;1.75;;;9.50;93.00;;;;;;5015166;28;20109;-68
2022/11/15 03:39:03;;;;;;;5.85;1.70;;;9.30;93.70;;;;;;5020357;28;20021;-69
2022/11/15 03:41:37;;;;;;;4.47;1.80;;;9.20;94.30;;;;;;5019504;28;20400;-69
2022/11/15 03:44:03;;;;;;;;;;;9.10;95.00;;;;;;5021252;28;20033;-68
2022/11/15 03:46:36;;;;;;;6.03;1.88;;;9.20;94.90;;;;;;5035968;28;20254;-68
2022/11/15 03:49:17;;;;;;;3.53;1.50;;;9.20;94.90;;;;;;5003684;28;20121;-68
2022/11/15 03:51:42;;;;;;;4.20;1.90;;;9.10;95.00;;;;;;5017034;28;20030;-69
2022/11/15 03:54:08;;;;;;;5.90;1.90;;;9.10;95.20;;;;;;5022682;28;20032;-68
2022/11/15 03:56:33;;;;;;;5.97;2.10;;;9.00;95.70;;;;;;5034927;28;20036;-68
2022/11/15 03:59:02;;;;;;;5.95;1.73;;;9.00;95.80;;;;;;5017650;28;20060;-68
2022/11/15 04:01:28;;;;;;;10.13;2.00;;;9.10;95.70;;;;;;5019494;28;20053;-69
2022/11/15 04:03:53;;;;;;;5.55;2.17;;;9.10;95.60;;;;;;5015689;28;20061;-68
2022/11/15 04:06:22;;;;;;;4.22;1.92;;;9.10;95.80;;;;;;5016886;28;20030;-69
2022/11/15 04:08:53;;;;;;;4.63;1.90;;;9.00;96.00;;;;;;5032077;28;20048;-68
2022/11/15 04:11:19;;;;;;;5.13;1.90;;;9.10;96.00;;;;;;5020280;28;20044;-68
2022/11/15 04:13:44;;;;;;;6.00;1.90;;;9.10;95.70;;;;;;5017391;28;20037;-68
2022/11/15 04:16:10;;;;;;;4.55;1.75;;;9.10;95.80;;;;;;5008843;28;20029;-68
2022/11/15 04:18:35;;;;;;;6.10;2.20;;;9.20;95.70;;;;;;5016116;28;20404;-68
2022/11/15 04:26:20;;;;;;;4.55;1.75;;;9.30;95.70;;;;;;5016322;28;20029;-69
2022/11/15 04:31:33;;;;;;;3.40;1.70;;;9.30;96.00;;;;;;5018136;28;20444;-69
2022/11/15 04:33:59;;;;;;;4.80;1.73;;;9.30;96.10;;;;;;5022990;28;20037;-69
2022/11/15 04:39:09;;;;;;;5.18;1.98;;;9.20;96.50;;;;;;5023932;28;20037;-69
2022/11/15 04:41:35;;;;;;;4.13;1.80;;;9.00;97.00;;;;;;5027969;28;20033;-68
2022/11/15 04:44:00;;;;;;;4.53;1.75;;;9.00;97.20;;;;;;5028377;28;20060;-68
2022/11/15 04:46:28;;;;;;;4.30;1.80;;;8.90;97.60;;;;;;5034951;28;20200;-68
2022/11/15 04:48:54;;;;;;;5.00;1.77;;;9.00;97.40;;;;;;5025396;28;20025;-67
2022/11/15 04:51:20;;;;;;;4.32;1.73;;;9.00;97.20;;;;;;5026324;28;20079;-68
2022/11/15 04:53:46;;;;;;;5.53;2.10;;;9.00;97.80;;;;;;5016571;28;20350;-68
2022/11/15 04:56:11;;;;;;;4.60;2.00;;;8.80;98.00;;;;;;5019096;28;20026;-68
2022/11/15 04:58:37;;;;;;;3.58;1.67;;;8.70;98.00;;;;;;5036330;28;20053;-68
2022/11/15 05:01:07;;;;;;;3.63;1.60;;;8.50;98.00;;;;;;5027952;28;20108;-70
2022/11/15 05:06:20;;;;;;;3.33;1.67;;;8.40;98.00;;;;;;5029287;28;20040;-69
2022/11/15 05:08:46;;;;;;;4.22;1.70;;;8.20;98.00;;;;;;5029163;28;20067;-69
2022/11/15 05:11:12;;;;;;;4.20;2.22;;;8.20;98.00;;;;;;5032306;28;20115;-69
2022/11/15 05:13:38;;;;;;;4.28;1.70;;;8.30;98.00;;;;;;5031415;28;20327;-69
2022/11/15 05:16:03;;;;;;;4.32;1.60;;;8.40;98.00;;;;;;5028247;28;20033;-69
2022/11/15 05:18:29;;;;;;;4.75;1.77;;;8.70;98.00;;;;;;5043338;28;20479;-69
2022/11/15 05:20:55;;;;;;;2.40;1.40;;;9.10;98.00;;;;;;5025733;28;20156;-69
2022/11/15 05:23:22;;;;;;;3.42;1.42;;;9.50;97.20;;;;;;5032341;28;20414;-67
2022/11/15 05:25:48;;;;;;;5.78;1.88;;;9.70;96.70;;;;;;5032495;28;20026;-68
2022/11/15 05:28:14;;;;;;;4.03;1.70;;;9.70;96.60;;;;;;5003036;28;1143672;-69
2022/11/15 05:30:39;;;;;;;3.40;1.60;;;9.80;96.50;;;;;;5026242;28;20299;-69
2022/11/15 05:33:05;;;;;;;5.50;1.90;;;9.80;96.50;;;;;;5029688;28;20026;-69
2022/11/15 05:35:40;;;;;;;3.97;1.70;;;9.70;96.80;;;;;;5030416;28;20045;-69
2022/11/15 05:38:06;;;;;;;4.55;2.05;;;9.60;97.00;;;;;;5024199;28;20407;-69
2022/11/15 05:40:34;;;;;;;2.95;1.40;;;9.50;97.20;;;;;;5026396;28;20060;-69
2022/11/15 05:43:01;;;;;;;4.45;2.08;;;9.40;97.50;;;;;;5031790;28;20029;-68
2022/11/15 05:45:34;;;;;;;3.15;1.60;;;9.40;97.50;;;;;;5024249;28;20165;-68
2022/11/15 05:48:05;;;;;;;5.90;1.83;;;9.40;97.70;;;;;;5030441;28;20025;-69
2022/11/15 05:50:31;;;;;;;3.80;1.50;;;9.30;97.90;;;;;;5025595;28;20030;-69
2022/11/15 05:53:00;;;;;;;4.03;1.55;;;9.30;98.00;;;;;;5025649;28;20030;-68
2022/11/15 05:55:25;;;;;;;4.25;1.50;;;9.20;98.00;;;;;;5027636;28;20030;-69
2022/11/15 05:57:51;;;;;;;4.47;1.50;;;9.20;98.00;;;;;;5019685;28;20020;-69
2022/11/15 06:00:17;;;;;;;3.88;1.60;;;9.00;98.00;;;;;;5026907;28;20167;-69
2022/11/15 06:02:43;;;;;;;4.75;1.73;;;8.80;98.00;;;;;;5022125;28;20148;-69
2022/11/15 06:05:08;;;;;;;6.50;1.92;;;8.70;98.00;;;;;;5029321;28;20033;-69
2022/11/15 06:07:34;;;;;;;6.32;1.67;;;8.50;98.00;;;;;;5025647;28;20544;-68
2022/11/15 06:10:15;;;;;;;6.07;2.90;;;8.30;98.00;;;;;;5023794;28;20025;-67
2022/11/15 06:12:41;;;;;;;4.78;2.00;;;8.10;98.00;;;;;;5029855;28;20032;-68
2022/11/15 06:15:07;;;;;;;5.57;2.25;;;8.00;98.00;;;;;;5032341;28;20025;-69
2022/11/15 06:17:33;;;;;;;5.53;2.30;;;7.90;98.00;;;;;;5028091;28;20076;-68
2022/11/15 06:19:58;;;;;;;6.35;2.00;;;8.00;98.00;;;;;;5028368;28;20049;-68
2022/11/15 06:22:24;;;;;;;5.50;2.22;;;8.10;98.00;;;;;;5024560;28;20025;-68
2022/11/15 06:24:49;;;;;;;7.53;2.42;;;8.20;98.00;;;;;;5046016;28;20021;-68
2022/11/15 06:27:15;;;;;;;7.40;2.22;;;8.40;98.00;;;;;;5022940;28;20060;-69
2022/11/15 06:29:41;;;;;;;4.82;2.20;;;8.50;98.00;;;;;;5021104;28;20034;-69
2022/11/15 06:32:06;;;;;;;5.47;2.13;;;8.50;98.00;;;;;;5022170;28;20320;-69
2022/11/15 06:34:32;;;;;;;4.10;1.95;;;8.40;98.00;;;;;;5033433;28;20029;-69
2022/11/15 06:36:58;;;;;;;4.80;2.20;;;8.50;98.00;;;;;;5025492;28;20029;-69
2022/11/15 06:39:23;;;;;;;4.90;2.50;;;8.60;98.00;;;;;;5031787;28;20185;-68
2022/11/15 06:41:49;;;;;;;8.52;2.20;;;8.60;98.00;;;;;;5024631;28;20124;-68
2022/11/15 06:44:16;;;;;;;4.30;2.30;;;8.60;98.00;;;;;;5023999;28;20452;-68
2022/11/15 06:46:41;;;;;;;5.47;2.40;;;8.50;98.00;;;;;;5034851;28;20033;-68
2022/11/15 06:49:07;;;;;;;5.38;2.30;;;8.30;98.00;;;;;;5032343;28;20017;-69
2022/11/15 06:51:33;;;;;;;5.40;2.30;;;8.20;98.00;;;;;;5026026;28;20026;-68
2022/11/15 06:53:58;;;;;;;5.72;2.88;;;8.20;98.00;;;;;;5034682;28;20044;-68
2022/11/15 06:56:24;;;;;;;9.93;2.88;;;8.20;98.00;;;;;;5034326;28;20072;-68
2022/11/15 06:58:50;;;;;;;6.38;2.70;;;8.30;98.00;;;;;;5023488;28;20033;-68
2022/11/15 07:01:17;;;;;;;5.22;2.53;;;8.30;98.00;;;;;;5034861;28;20311;-68
2022/11/15 07:03:43;;;;;;;4.90;2.65;;;8.40;98.00;;;;;;5029493;28;20018;-67
2022/11/15 07:06:09;;;;;;;5.22;2.63;;;8.50;98.00;;;;;;5029059;28;20037;-68
2022/11/15 07:08:35;;;;;;;8.07;2.60;;;8.50;98.00;;;;;;5025928;28;20025;-69
2022/11/15 07:11:04;;;;;;;5.00;2.67;;;8.50;98.00;;;;;;5027696;28;20075;-68
2022/11/15 07:13:32;;;;;;;8.02;2.75;;;8.60;98.00;;;;;;5033430;28;20025;-69
2022/11/15 07:16:01;;;;;;;5.82;2.72;;;8.60;98.00;;;;;;5026567;28;20326;-68
2022/11/15 07:18:27;;;;;;;5.18;2.72;;;8.70;98.00;;;;;;5031692;28;20022;-69
2022/11/15 07:20:53;;;;;;;6.82;3.00;;;8.80;98.00;;;;;;5034934;28;20025;-68
2022/11/15 07:23:18;;;;;;;6.57;3.22;;;8.90;98.00;;;;;;5031439;28;20156;-68
2022/11/15 07:25:44;;;;;;;13.43;3.00;;;9.00;98.00;;;;;;5036407;28;20339;-69
2022/11/15 07:28:10;;;;;;;5.97;3.08;;;9.10;98.00;;;;;;5021846;28;20171;-68
2022/11/15 07:30:38;;;;;;;7.82;2.97;;;9.30;97.60;;;;;;5052408;28;20072;-69
2022/11/15 07:33:03;;;;;;;8.60;3.60;;;9.50;97.00;;;;;;5035763;28;20377;-68
2022/11/15 07:35:30;;;;;;;7.55;4.57;;;9.70;96.80;;;;;;5033480;28;20060;-69
2022/11/15 07:38:02;;;;;;;9.32;5.00;;;9.80;96.60;;;;;;5034809;28;20053;-69
2022/11/15 07:40:29;;;;;;;15.02;6.72;;;9.90;96.50;;;;;;5022928;28;20415;-68
2022/11/15 07:43:03;;;;;;;6.80;2.60;;;10.00;96.40;;;;;;5026471;28;20022;-68
2022/11/15 07:45:29;;;;;;;6.70;3.70;;;10.10;95.90;;;;;;5031075;28;20032;-68
2022/11/15 07:47:56;;;;;;;6.80;3.08;;;10.20;95.70;;;;;;5026507;28;20327;-68
2022/11/15 07:50:23;;;;;;;8.32;4.72;;;10.30;95.40;;;;;;5032095;28;20029;-68
2022/11/15 07:52:56;;;;;;;6.68;2.60;;;10.30;95.40;;;;;;5022450;28;20028;-68
2022/11/15 07:55:23;;;;;;;5.85;3.38;;;10.40;95.30;;;;;;5030220;28;20171;-70
2022/11/15 07:57:51;;;;;;;14.55;7.65;;;10.50;94.90;;;;;;5033595;28;20030;-70
2022/11/15 08:00:17;;;;;;;26.50;12.00;;;10.60;95.20;;;;;;5036046;28;20313;-69
2022/11/15 08:02:43;;;;;;;29.38;14.25;;;10.60;94.70;;;;;;5035856;28;20365;-69
2022/11/15 08:05:11;;;;;;;17.17;8.93;;;10.70;94.60;;;;;;5036007;28;20029;-69
2022/11/15 08:07:37;;;;;;;6.40;2.70;;;10.70;94.80;;;;;;5034509;28;20060;-69
2022/11/15 08:10:07;;;;;;;6.93;2.80;;;10.60;95.30;;;;;;5034711;28;20052;-69
2022/11/15 08:12:34;;;;;;;4.20;2.30;;;10.50;95.50;;;;;;5035908;28;20073;-69
2022/11/15 08:14:59;;;;;;;4.35;2.28;;;10.50;95.40;;;;;;5035025;28;20034;-69
2022/11/15 08:17:25;;;;;;;6.22;2.85;;;10.40;95.80;;;;;;5035803;28;20460;-69
2022/11/15 08:19:51;;;;;;;5.50;2.20;;;10.40;96.00;;;;;;5035769;28;20029;-69
2022/11/15 08:22:17;;;;;;;4.75;2.15;;;10.30;96.50;;;;;;5016777;28;20032;-69
2022/11/15 08:24:43;;;;;;;6.05;3.00;;;10.40;96.50;;;;;;5035763;28;20036;-69
2022/11/15 08:27:14;;;;;;;5.45;2.42;;;10.50;96.60;;;;;;5035220;28;20437;-69
2022/11/15 08:29:41;;;;;;;5.30;2.55;;;10.70;96.40;;;;;;5028970;28;20026;-69
2022/11/15 08:32:07;;;;;;;5.63;2.78;;;10.90;96.00;;;;;;5015660;28;20026;-69
2022/11/15 08:34:33;;;;;;;5.65;2.60;;;11.10;95.40;;;;;;5015822;28;20022;-69
2022/11/15 08:36:59;;;;;;;6.63;2.80;;;11.20;95.30;;;;;;5014503;28;20030;-69
2022/11/15 08:39:24;;;;;;;12.38;3.05;;;11.30;95.80;;;;;;5015812;28;20033;-68
2022/11/15 08:41:50;;;;;;;7.38;3.40;;;11.40;95.50;;;;;;5015850;28;20022;-69
2022/11/15 08:44:15;;;;;;;6.18;3.03;;;11.60;95.50;;;;;;5015530;28;20026;-69
2022/11/15 08:46:41;;;;;;;8.30;2.97;;;11.80;94.50;;;;;;5016100;28;20061;-68
2022/11/15 08:49:07;;;;;;;7.68;4.68;;;12.10;93.60;;;;;;5015623;28;20022;-69
2022/11/15 08:51:32;;;;;;;7.45;2.58;;;12.20;93.10;;;;;;5015516;28;20033;-68
2022/11/15 08:53:58;;;;;;;6.57;2.60;;;12.30;91.80;;;;;;5014497;28;20029;-69
2022/11/15 08:56:23;;;;;;;5.82;2.83;;;12.50;90.60;;;;;;5022548;28;20030;-68
2022/11/15 08:58:51;;;;;;;5.95;2.85;;;12.60;90.50;;;;;;5035430;28;20021;-69
2022/11/15 09:01:20;;;;;;;4.32;2.00;;;12.70;90.30;;;;;;5034715;28;20056;-68
2022/11/15 09:03:46;;;;;;;8.40;4.70;;;12.90;89.90;;;;;;5035263;28;20025;-68
2022/11/15 09:06:12;;;;;;;6.57;2.40;;;13.10;89.70;;;;;;5035226;28;20036;-68
2022/11/15 09:08:37;;;;;;;7.05;3.72;;;13.10;88.70;;;;;;5034141;28;20025;-70
2022/11/15 09:11:04;;;;;;;11.80;6.78;;;13.20;89.10;;;;;;5035124;28;20040;-68
2022/11/15 09:13:30;;;;;;;8.93;4.65;;;13.30;91.50;;;;;;5035316;28;20036;-69
2022/11/15 09:16:00;;;;;;;14.43;8.82;;;13.40;92.00;;;;;;5020370;28;20037;-69
2022/11/15 09:18:27;;;;;;;11.65;7.60;;;13.40;92.20;;;;;;5015670;28;20018;-69
2022/11/15 09:20:56;;;;;;;9.20;5.10;;;13.50;92.30;;;;;;5022136;28;20405;-69
2022/11/15 09:23:23;;;;;;;9.82;5.88;;;13.40;91.40;;;;;;5035771;28;20014;-69
2022/11/15 09:25:48;;;;;;;8.75;5.10;;;13.40;91.70;;;;;;5035170;28;20029;-69
2022/11/15 09:28:15;;;;;;;7.10;4.20;;;13.60;91.60;;;;;;5038510;28;20049;-69
2022/11/15 09:30:41;;;;;;;7.63;3.08;;;13.70;91.10;;;;;;5039884;28;20373;-69
2022/11/15 09:33:08;;;;;;;6.50;3.72;;;13.70;89.80;;;;;;5038539;28;20030;-69
2022/11/15 09:35:34;;;;;;;9.23;4.85;;;13.80;89.80;;;;;;5036160;28;20033;-69
2022/11/15 09:38:00;;;;;;;8.88;4.70;;;13.90;90.50;;;;;;5036765;28;20017;-68
2022/11/15 09:40:26;;;;;;;6.78;3.55;;;14.30;90.10;;;;;;5038493;28;20028;-68
2022/11/15 09:43:17;;;;;;;6.57;3.20;;;14.50;88.80;;;;;;5036623;28;20441;-69
2022/11/15 09:46:03;;;;;;;7.60;2.28;;;14.80;89.30;;;;;;5038281;28;20025;-69
2022/11/15 09:48:52;;;;;;;6.00;2.63;;;15.20;81.00;;;;;;5038410;28;20038;-69
2022/11/15 09:51:24;;;;;;;4.40;1.70;;;15.90;80.70;;;;;;5038377;28;20083;-69
2022/11/15 09:54:08;;;;;;;7.40;2.13;;;16.00;78.70;;;;;;5035825;28;20034;-69
2022/11/15 09:56:42;;;;;;;9.45;4.55;;;15.90;77.60;;;;;;5038192;28;20453;-68
2022/11/15 09:59:26;;;;;;;11.60;5.40;;;15.80;81.30;;;;;;5038230;28;20110;-69
2022/11/15 10:02:01;;;;;;;;;;;15.50;81.40;;;;;;5038536;28;20021;-69
2022/11/15 10:04:28;;;;;;;11.30;5.43;;;15.40;83.40;;;;;;5037816;28;19928;-69
2022/11/15 10:07:21;;;;;;;10.02;5.50;;;15.20;84.80;;;;;;5037304;28;20025;-68
2022/11/15 10:10:09;;;;;;;9.95;5.22;;;14.80;86.20;;;;;;5030825;28;20029;-68
2022/11/15 10:12:35;;;;;;;11.88;5.35;;;14.50;87.50;;;;;;5018140;28;20030;-68
2022/11/15 10:15:11;;;;;;;13.20;6.50;;;14.40;88.60;;;;;;5030366;28;20129;-68
2022/11/15 10:18:08;;;;;;;14.95;7.20;;;14.20;88.60;;;;;;5037537;28;20029;-69
2022/11/15 10:20:50;;;;;;;13.25;6.65;;;13.80;89.70;;;;;;5036919;28;20037;-69
2022/11/15 10:23:20;;;;;;;18.08;10.20;;;13.70;90.10;;;;;;5036312;28;20104;-69
2022/11/15 10:25:46;;;;;;;17.10;8.95;;;13.90;90.30;;;;;;5037663;28;20379;-69
2022/11/15 10:28:22;;;;;;;18.67;8.15;;;13.80;90.40;;;;;;5053083;28;20076;-68
2022/11/15 10:30:50;;;;;;;20.42;11.02;;;13.90;90.40;;;;;;5036603;28;20033;-69
2022/11/15 10:33:34;;;;;;;26.27;13.23;;;13.80;90.20;;;;;;5035686;28;20033;-68
2022/11/15 10:36:09;;;;;;;26.70;11.90;;;13.80;90.20;;;;;;5033140;28;20033;-69
2022/11/15 10:38:50;;;;;;;16.83;8.50;;;13.70;90.80;;;;;;5017448;28;20026;-68
2022/11/15 10:41:29;;;;;;;19.48;9.57;;;13.80;91.20;;;;;;5021770;28;20018;-68
2022/11/15 10:44:07;;;;;;;14.48;5.93;;;13.90;90.00;;;;;;5037249;28;20053;-68
2022/11/15 10:46:35;;;;;;;13.90;5.82;;;13.90;89.90;;;;;;5029453;28;20038;-67
2022/11/15 10:49:17;;;;;;;15.57;6.57;;;13.80;89.90;;;;;;5030502;28;20033;-67
2022/11/15 10:51:52;;;;;;;15.60;5.93;;;13.80;89.90;;;;;;5028596;28;20053;-70
2022/11/15 10:54:28;;;;;;;13.07;6.15;;;14.00;89.80;;;;;;5017043;28;20032;-69
2022/11/15 10:56:57;;;;;;;12.73;6.47;;;14.20;89.80;;;;;;5019684;28;20088;-70
2022/11/15 10:59:31;;;;;;;11.20;6.03;;;14.30;90.10;;;;;;5018178;28;20030;-69
2022/11/15 11:01:57;;;;;;;10.93;5.63;;;14.50;89.70;;;;;;5024775;28;20025;-69
2022/11/15 11:04:23;;;;;;;12.63;6.03;;;14.70;90.30;;;;;;5036933;28;20021;-69
2022/11/15 11:06:58;;;;;;;15.23;6.95;;;14.80;89.40;;;;;;5028150;28;20081;-70
2022/11/15 11:09:38;;;;;;;12.77;6.03;;;14.70;89.30;;;;;;5032963;28;20076;-69
2022/11/15 11:12:10;;;;;;;16.38;8.55;;;14.50;90.80;;;;;;5027443;28;20044;-69
2022/11/15 11:14:37;;;;;;;16.92;7.68;;;14.70;90.10;;;;;;5016777;28;20058;-69
2022/11/15 11:17:12;;;;;;;13.70;8.18;;;14.80;90.50;;;;;;5025354;28;20034;-69
2022/11/15 11:19:44;;;;;;;16.02;8.32;;;15.00;89.50;;;;;;5035614;28;20437;-69
2022/11/15 11:22:28;;;;;;;25.13;9.50;;;14.80;89.40;;;;;;5026532;28;20033;-69
2022/11/15 11:25:32;;;;;;;30.92;13.10;;;14.70;88.40;;;;;;5027157;28;20033;-69
2022/11/15 11:27:57;;;;;;;23.92;9.98;;;14.50;88.40;;;;;;4954701;28;20151;-69
2022/11/15 11:30:40;;;;;;;16.73;7.57;;;14.40;88.20;;;;;;5005259;28;20358;-69
2022/11/15 11:33:24;;;;;;;14.50;6.68;;;14.30;87.90;;;;;;5033903;28;20044;-69
2022/11/15 11:36:13;;;;;;;11.35;5.55;;;14.20;89.20;;;;;;5016297;28;20022;-69
2022/11/15 11:39:11;;;;;;;8.20;4.55;;;14.20;90.50;;;;;;5027967;28;20304;-69
2022/11/15 11:41:52;;;;;;;7.55;4.38;;;14.40;90.40;;;;;;5016078;28;20028;-69
2022/11/15 11:44:28;;;;;;;17.02;9.48;;;14.50;90.00;;;;;;5017115;28;20029;-69
2022/11/15 11:47:00;;;;;;;8.68;4.63;;;14.60;89.70;;;;;;5016187;28;20049;-69
2022/11/15 11:49:45;;;;;;;7.82;4.40;;;14.70;89.80;;;;;;5030341;28;20422;-68
2022/11/15 11:52:33;;;;;;;8.63;5.10;;;14.70;90.50;;;;;;5033767;28;20044;-69
2022/11/15 11:55:36;;;;;;;9.23;5.20;;;14.70;90.10;;;;;;5026639;28;20318;-69
2022/11/15 11:58:07;;;;;;;23.17;6.32;;;14.70;89.30;;;;;;5028520;28;20049;-69
2022/11/15 12:00:38;;;;;;;10.68;4.93;;;14.80;89.80;;;;;;5034988;28;20299;-68
2022/11/15 12:03:34;;;;;;;6.65;3.60;;;14.80;90.50;;;;;;5026363;28;20026;-69
2022/11/15 12:06:16;;;;;;;7.18;3.60;;;14.80;89.60;;;;;;5016049;28;20034;-68
2022/11/15 12:08:57;;;;;;;4.63;2.63;;;15.10;88.50;;;;;;5015899;28;20080;-69
2022/11/15 12:11:50;;;;;;;6.28;2.40;;;15.20;82.40;;;;;;5016877;28;20108;-69
2022/11/15 12:15:10;;;;;;;4.90;2.33;;;14.90;84.10;;;;;;5014905;28;20033;-69
2022/11/15 12:17:38;;;;;;;6.18;1.80;;;14.90;87.00;;;;;;4974452;28;20031;-69
2022/11/15 12:20:26;;;;;;;5.38;2.05;;;14.90;85.40;;;;;;5008137;28;20061;-69
2022/11/15 12:23:20;;;;;;;7.20;3.63;;;14.80;84.00;;;;;;5008397;28;20038;-69
2022/11/15 12:25:55;;;;;;;;;;;14.90;84.50;;;;;;5019132;28;20045;-69
2022/11/15 12:28:49;;;;;;;8.15;6.10;;;14.80;84.40;;;;;;5028046;28;20010;-69
2022/11/15 12:31:18;;;;;;;5.72;1.98;;;14.70;85.20;;;;;;5020527;28;20394;-69
2022/11/15 12:33:46;;;;;;;3.95;1.65;;;14.80;85.50;;;;;;5015871;28;20028;-69
2022/11/15 12:36:33;;;;;;;4.93;2.80;;;14.90;84.70;;;;;;5016065;28;20026;-69
2022/11/15 12:39:04;;;;;;;5.78;2.60;;;15.20;84.50;;;;;;5014721;28;20037;-69
2022/11/15 12:42:03;;;;;;;4.65;1.75;;;15.40;84.70;;;;;;5020073;28;20051;-69
2022/11/15 12:44:35;;;;;;;3.35;1.50;;;15.60;85.20;;;;;;5035465;28;20039;-69
2022/11/15 12:47:08;;;;;;;3.58;1.63;;;15.40;83.40;;;;;;5028444;28;20030;-69
2022/11/15 12:49:36;;;;;;;5.30;2.05;;;15.20;84.00;;;;;;5025593;28;20037;-69
2022/11/15 12:52:03;;;;;;;3.90;1.30;;;15.10;84.50;;;;;;5031630;28;20476;-69
2022/11/15 12:54:32;;;;;;;2.05;1.10;;;14.90;83.80;;;;;;5028874;28;20021;-69
2022/11/15 12:57:03;;;;;;;4.50;1.40;;;14.80;85.30;;;;;;5019585;28;20445;-69
2022/11/15 12:59:48;;;;;;;4.03;1.58;;;14.70;85.20;;;;;;5019735;28;20018;-69
2022/11/15 13:02:45;;;;;;;4.30;1.70;;;14.70;84.50;;;;;;5033075;28;20051;-69
2022/11/15 13:05:33;;;;;;;4.22;1.60;;;14.60;85.80;;;;;;5032799;28;20033;-68
2022/11/15 13:07:59;;;;;;;2.40;1.05;;;14.50;84.30;;;;;;5030980;28;20049;-69
2022/11/15 13:10:32;;;;;;;2.15;0.88;;;14.50;84.40;;;;;;5032286;28;20442;-69
2022/11/15 13:13:03;;;;;;;3.05;1.00;;;14.30;84.70;;;;;;5018826;28;20026;-69
2022/11/15 13:15:56;;;;;;;3.53;0.85;;;14.30;85.00;;;;;;5019295;28;20026;-69
2022/11/15 13:18:39;;;;;;;4.57;1.02;;;14.30;84.80;;;;;;5032433;28;20449;-69
2022/11/15 13:24:15;;;;;;;2.75;1.23;;;14.20;86.30;;;;;;5018138;28;20049;-69
2022/11/15 13:26:44;;;;;;;2.67;0.93;;;14.20;86.80;;;;;;5018982;28;20095;-69
2022/11/15 13:29:19;;;;;;;2.28;1.13;;;14.20;86.60;;;;;;5027462;28;20122;-69
2022/11/15 13:31:46;;;;;;;2.60;1.20;;;14.10;85.10;;;;;;5038781;28;20105;-68
2022/11/15 13:34:35;;;;;;;2.20;1.00;;;13.90;86.80;;;;;;5038656;28;20099;-68